Portada
METAR-TAF:

METAR-TAF

Aeropuertos :

Aeropuerto Internacional Rarotonga

Rarotonga, Islas Cook

latitud: 21-12S, longitud: 159-49W, altitud: 7 m

Observación

El informe se hizo hace 36 minutos, a las 13:00 UTC
Viento 4 kt del este-sureste
Temperatura 23°C
Humedad 78%
Presión 1017 hPa
Visibilidad 10 km o más

METAR: NCRG 131300Z AUTO 11004KT 9999 FEW025/// 23/19 Q1017

Hora: 03:36 (13:36 UTC)

Pronóstico

El informe se hizo hace 2 horas y 28 minutos, a las 11:08 UTC
Pronóstico válido del 13 a las 12 UTC al 14 a las 12 UTC
Viento 7 kt del este
Visibilidad 10 km o más
Escasas nubes a una altura de 2800 ft
Cielo nuboso a una altura de 5000 ft

TAF: NCRG 131108Z 1312/1412 10007KT 9999 FEW028 BKN050

Observaciones y pronósticos meteorológicos de más de 4000 aeropuertos (mensajes METAR y TAF).

Los puntos amarillos y rojos representan las estaciones disponibles.

Ponga el ratón en el punto deseado para ver el nombre de la estación.

Haga clic para ver las observaciones y los pronósticos meteorológicos.

Para cambiar el mapa : haga clic en los botones verdes con una cruz de color negro para hacer un zoom, en el botón verde con un guión para alejar o en las flechas verdes para mapas adyacentes.


METAR-TAF: